createdAt,value
2019-03-30T00:01:04.099Z,99637.42
2019-03-30T00:03:33.056Z,99639.55
2019-03-30T00:06:00.227Z,99636.64
2019-03-30T00:08:27.584Z,99632.94
2019-03-30T00:10:54.813Z,99635.86
2019-03-30T00:13:21.713Z,99637.98
2019-03-30T00:15:48.617Z,99639.58
2019-03-30T00:18:15.375Z,99643.28
2019-03-30T00:20:42.549Z,99637.02
2019-03-30T00:23:09.692Z,99640.50
2019-03-30T00:25:36.751Z,99645.31
2019-03-30T00:28:03.858Z,99639.64
2019-03-30T00:30:31.179Z,99647.64
2019-03-30T00:32:58.281Z,99649.09
2019-03-30T00:35:25.478Z,99638.09
2019-03-30T00:37:52.435Z,99635.17
2019-03-30T00:40:19.486Z,99638.89
2019-03-30T00:42:47.178Z,99636.63
2019-03-30T00:45:15.309Z,99640.92
2019-03-30T00:47:42.266Z,99638.22
2019-03-30T00:50:09.279Z,99631.81
2019-03-30T00:52:36.635Z,99633.16
2019-03-30T00:55:05.338Z,99635.03
2019-03-30T00:57:32.452Z,99634.20
2019-03-30T00:59:59.951Z,99625.82
2019-03-30T01:02:27.729Z,99627.72
2019-03-30T01:04:54.678Z,99626.06
2019-03-30T01:07:23.944Z,99624.96
2019-03-30T01:09:50.721Z,99626.03
2019-03-30T01:12:17.651Z,99622.81
2019-03-30T01:14:44.676Z,99622.53
2019-03-30T01:17:11.681Z,99622.72
2019-03-30T01:19:39.755Z,99621.67
2019-03-30T01:22:06.783Z,99621.13
2019-03-30T01:24:33.598Z,99614.68
2019-03-30T01:27:00.529Z,99618.24
2019-03-30T01:29:27.441Z,99615.81
2019-03-30T01:31:54.347Z,99615.02
2019-03-30T01:34:21.168Z,99618.98
2019-03-30T01:36:47.944Z,99612.71
2019-03-30T01:39:14.737Z,99614.61
2019-03-30T01:41:41.910Z,99613.58
2019-03-30T01:44:08.664Z,99611.21
2019-03-30T01:46:35.797Z,99605.09
2019-03-30T01:49:02.818Z,99602.14
2019-03-30T01:51:29.788Z,99602.98
2019-03-30T01:53:56.560Z,99602.17
2019-03-30T01:56:23.410Z,99591.66
2019-03-30T01:58:50.791Z,99600.34
2019-03-30T02:01:17.745Z,99600.07
2019-03-30T02:03:45.033Z,99597.32
2019-03-30T02:06:11.772Z,99594.59
2019-03-30T02:08:38.820Z,99598.67
2019-03-30T02:11:05.821Z,99597.02
2019-03-30T02:13:32.595Z,99596.74
2019-03-30T02:16:00.088Z,99592.98
2019-03-30T02:18:27.117Z,99592.42
2019-03-30T02:20:54.371Z,99589.66
2019-03-30T02:23:21.240Z,99588.89
2019-03-30T02:25:48.595Z,99588.56
2019-03-30T02:28:16.392Z,99588.50
2019-03-30T02:30:43.486Z,99582.02
2019-03-30T02:33:10.596Z,99582.87
2019-03-30T02:35:37.405Z,99587.70
2019-03-30T02:38:04.351Z,99587.40
2019-03-30T02:40:31.229Z,99581.23
2019-03-30T02:43:02.346Z,99577.42
2019-03-30T02:45:29.750Z,99572.88
2019-03-30T02:47:56.634Z,99579.60
2019-03-30T02:50:23.508Z,99576.38
2019-03-30T02:52:50.416Z,99583.43
2019-03-30T02:55:17.292Z,99578.25
2019-03-30T02:57:44.162Z,99575.85
2019-03-30T03:00:13.559Z,99578.30
2019-03-30T03:02:40.418Z,99578.85
2019-03-30T03:05:08.995Z,99581.23
2019-03-30T03:07:35.851Z,99571.99
2019-03-30T03:10:06.396Z,99572.30
2019-03-30T03:12:33.551Z,99576.88
2019-03-30T03:15:07.352Z,99577.09
2019-03-30T03:17:34.225Z,99575.00
2019-03-30T03:20:01.421Z,99580.30
2019-03-30T03:22:28.212Z,99577.58
2019-03-30T03:24:55.185Z,99572.76
2019-03-30T03:27:21.970Z,99572.20
2019-03-30T03:29:48.950Z,99576.56
2019-03-30T03:32:15.901Z,99566.26
2019-03-30T03:34:43.104Z,99567.02
2019-03-30T03:37:10.258Z,99563.77
2019-03-30T03:39:37.373Z,99568.92
2019-03-30T03:42:04.876Z,99572.66
2019-03-30T03:44:32.289Z,99570.61
2019-03-30T03:46:59.165Z,99572.48
2019-03-30T03:49:25.950Z,99569.75
2019-03-30T03:51:53.335Z,99574.42
2019-03-30T03:54:20.465Z,99571.41
2019-03-30T03:56:47.613Z,99571.77
2019-03-30T03:59:15.510Z,99570.03
2019-03-30T04:01:45.102Z,99572.31
2019-03-30T04:04:15.215Z,99574.22
2019-03-30T04:06:43.958Z,99569.85
2019-03-30T04:09:14.739Z,99571.34
2019-03-30T04:11:42.637Z,99576.52
2019-03-30T04:14:12.640Z,99578.05
2019-03-30T04:16:39.581Z,99577.84
2019-03-30T04:19:06.441Z,99577.84
2019-03-30T04:21:43.818Z,99579.43
2019-03-30T04:24:02.395Z,99581.42
2019-03-30T04:26:29.463Z,99580.59
2019-03-30T04:28:56.871Z,99584.72
2019-03-30T04:31:24.006Z,99578.59
2019-03-30T04:33:53.963Z,99583.41
2019-03-30T04:36:21.080Z,99581.55
2019-03-30T04:38:47.861Z,99586.40
2019-03-30T04:41:14.917Z,99582.56
2019-03-30T04:43:41.758Z,99577.14
2019-03-30T04:46:08.584Z,99584.08
2019-03-30T04:48:35.390Z,99580.55
2019-03-30T04:51:02.251Z,99579.72
2019-03-30T04:53:29.125Z,99576.97
2019-03-30T04:55:57.006Z,99580.95
2019-03-30T04:58:23.916Z,99580.95
2019-03-30T05:00:50.825Z,99583.34
2019-03-30T05:03:17.594Z,99584.19
2019-03-30T05:05:44.971Z,99578.41
2019-03-30T05:08:12.426Z,99577.48
2019-03-30T05:10:39.216Z,99582.11
2019-03-30T05:13:06.688Z,99589.06
2019-03-30T05:15:36.584Z,99580.18
2019-03-30T05:18:03.568Z,99585.84
2019-03-30T05:20:30.936Z,99581.77
2019-03-30T05:23:01.470Z,99581.03
2019-03-30T05:25:29.107Z,99589.95
2019-03-30T05:27:55.865Z,99589.33
2019-03-30T05:30:22.765Z,99583.89
2019-03-30T05:32:49.766Z,99581.95
2019-03-30T05:35:16.898Z,99581.81
2019-03-30T05:37:44.003Z,99584.73
2019-03-30T05:40:11.589Z,99587.78
2019-03-30T05:42:38.589Z,99584.52
2019-03-30T05:45:06.353Z,99581.89
2019-03-30T05:47:33.536Z,99580.47
2019-03-30T05:50:00.884Z,99583.23
2019-03-30T05:52:27.662Z,99583.83
2019-03-30T05:54:54.600Z,99586.35
2019-03-30T05:57:21.385Z,99577.28
2019-03-30T05:59:48.127Z,99583.18
2019-03-30T06:02:14.992Z,99583.45
2019-03-30T06:04:42.771Z,99591.88
2019-03-30T06:07:10.005Z,99588.00
2019-03-30T06:09:36.779Z,99589.83
2019-03-30T06:12:03.916Z,99595.73
2019-03-30T06:14:31.282Z,99588.66
2019-03-30T06:16:58.616Z,99592.93
2019-03-30T06:19:25.691Z,99592.15
2019-03-30T06:21:54.290Z,99592.60
2019-03-30T06:24:21.089Z,99592.88
2019-03-30T06:26:48.356Z,99591.82
2019-03-30T06:29:15.095Z,99585.25
2019-03-30T06:31:42.409Z,99589.06
2019-03-30T06:34:09.137Z,99588.05
2019-03-30T06:36:36.624Z,99586.27
2019-03-30T06:39:04.928Z,99590.45
2019-03-30T06:41:31.893Z,99589.47
2019-03-30T06:44:01.311Z,99590.70
2019-03-30T06:46:28.282Z,99584.27
2019-03-30T06:48:55.466Z,99593.25
2019-03-30T06:51:22.289Z,99594.19
2019-03-30T06:53:49.030Z,99593.00
2019-03-30T06:56:15.838Z,99586.59
2019-03-30T06:58:43.233Z,99590.73
2019-03-30T07:01:11.349Z,99594.09
2019-03-30T07:03:40.512Z,99580.97
2019-03-30T07:06:10.340Z,99585.33
2019-03-30T07:08:41.559Z,99584.55
2019-03-30T07:11:21.149Z,99582.17
2019-03-30T07:13:42.924Z,99581.17
2019-03-30T07:16:09.849Z,99581.52
2019-03-30T07:18:41.556Z,99580.24
2019-03-30T07:21:08.945Z,99571.69
2019-03-30T07:23:35.859Z,99575.83
2019-03-30T07:26:03.132Z,99573.23
2019-03-30T07:28:30.030Z,99574.58
2019-03-30T07:30:57.142Z,99576.23
2019-03-30T07:33:24.009Z,99572.75
2019-03-30T07:35:50.819Z,99568.98
2019-03-30T07:38:18.482Z,99569.28
2019-03-30T07:40:45.561Z,99563.39
2019-03-30T07:43:13.360Z,99564.27
2019-03-30T07:45:40.643Z,99560.53
2019-03-30T07:48:07.812Z,99562.69
2019-03-30T07:50:34.782Z,99569.75
2019-03-30T07:53:01.787Z,99568.11
2019-03-30T07:58:25.556Z,99560.81
2019-03-30T08:00:52.461Z,99568.63
2019-03-30T08:03:20.419Z,99572.09
2019-03-30T08:05:48.927Z,99568.23
2019-03-30T08:08:16.105Z,99568.70
2019-03-30T08:10:46.228Z,99580.28
2019-03-30T08:13:13.688Z,99573.61
2019-03-30T08:15:40.679Z,99580.13
2019-03-30T08:18:08.372Z,99578.23
2019-03-30T08:20:35.160Z,99572.95
2019-03-30T08:23:04.418Z,99578.74
2019-03-30T08:25:32.121Z,99574.17
2019-03-30T08:27:59.310Z,99580.56
2019-03-30T08:30:28.551Z,99577.70
2019-03-30T08:32:55.762Z,99579.27
2019-03-30T08:35:23.390Z,99575.06
2019-03-30T08:37:50.339Z,99570.12
2019-03-30T08:40:17.310Z,99573.50
2019-03-30T08:42:44.113Z,99570.84
2019-03-30T08:45:11.103Z,99572.47
2019-03-30T08:47:37.992Z,99572.98
2019-03-30T08:50:06.827Z,99569.70
2019-03-30T08:52:34.005Z,99571.48
2019-03-30T08:55:00.902Z,99567.70
2019-03-30T08:57:27.849Z,99573.35
2019-03-30T08:59:54.710Z,99568.97
2019-03-30T09:02:21.532Z,99568.98
2019-03-30T09:04:48.356Z,99570.64
2019-03-30T09:07:16.582Z,99569.62
2019-03-30T09:09:43.571Z,99567.38
2019-03-30T09:12:10.463Z,99568.34
2019-03-30T09:14:37.704Z,99570.09
2019-03-30T09:17:06.204Z,99562.41
2019-03-30T09:19:33.332Z,99557.16
2019-03-30T09:22:00.207Z,99553.14
2019-03-30T09:24:27.429Z,99557.19
2019-03-30T09:26:54.477Z,99551.36
2019-03-30T09:29:21.658Z,99553.22
2019-03-30T09:31:48.662Z,99550.92
2019-03-30T09:34:16.538Z,99547.11
2019-03-30T09:36:43.656Z,99545.02
2019-03-30T09:39:10.946Z,99543.23
2019-03-30T09:41:37.746Z,99537.59
2019-03-30T09:44:05.230Z,99534.78
2019-03-30T09:46:32.192Z,99532.52
2019-03-30T09:48:59.503Z,99527.19
2019-03-30T09:51:28.733Z,99526.95
2019-03-30T09:53:55.911Z,99527.45
2019-03-30T09:56:23.202Z,99528.00
2019-03-30T09:58:50.948Z,99524.17
2019-03-30T10:01:17.937Z,99519.67
2019-03-30T10:03:44.861Z,99518.34
2019-03-30T10:06:12.018Z,99513.33
2019-03-30T10:08:39.201Z,99513.19
2019-03-30T10:11:06.191Z,99510.37
2019-03-30T10:13:33.185Z,99505.58
2019-03-30T10:16:00.165Z,99505.46
2019-03-30T10:18:27.395Z,99501.23
2019-03-30T10:20:54.694Z,99486.57
2019-03-30T10:23:22.037Z,99489.89
2019-03-30T10:25:48.976Z,99490.78
2019-03-30T10:28:17.565Z,99488.67
2019-03-30T10:30:45.430Z,99480.94
2019-03-30T10:33:12.652Z,99481.44
2019-03-30T10:35:39.794Z,99474.64
2019-03-30T10:38:06.819Z,99480.65
2019-03-30T10:40:33.925Z,99469.95
2019-03-30T10:43:03.154Z,99470.46
2019-03-30T10:45:33.820Z,99467.08
2019-03-30T10:48:00.918Z,99465.79
2019-03-30T10:50:27.788Z,99455.47
2019-03-30T10:52:54.991Z,99456.44
2019-03-30T10:55:21.877Z,99451.05
2019-03-30T10:57:48.891Z,99454.16
2019-03-30T11:00:27.018Z,99455.80
2019-03-30T11:02:53.931Z,99450.22
2019-03-30T11:05:20.966Z,99444.92
2019-03-30T11:07:47.937Z,99442.59
2019-03-30T11:10:14.931Z,99446.15
2019-03-30T11:12:41.777Z,99439.80
2019-03-30T11:15:09.021Z,99441.97
2019-03-30T11:17:36.022Z,99444.83
2019-03-30T11:20:06.152Z,99439.41
2019-03-30T11:22:35.714Z,99436.18
2019-03-30T11:25:08.687Z,99438.09
2019-03-30T11:27:34.426Z,99438.35
2019-03-30T11:30:02.043Z,99428.73
2019-03-30T11:32:30.077Z,99425.06
2019-03-30T11:34:57.255Z,99419.72
2019-03-30T11:37:24.065Z,99418.07
2019-03-30T11:39:51.385Z,99412.63
2019-03-30T11:42:18.224Z,99410.97
2019-03-30T11:44:47.971Z,99414.52
2019-03-30T11:47:14.975Z,99408.04
2019-03-30T11:49:41.731Z,99409.49
2019-03-30T11:52:08.810Z,99401.23
2019-03-30T11:54:36.303Z,99400.23
2019-03-30T11:57:03.339Z,99397.23
2019-03-30T11:59:30.303Z,99393.44
2019-03-30T12:01:58.437Z,99390.87
2019-03-30T12:04:25.528Z,99394.81
2019-03-30T12:06:53.008Z,99386.63
2019-03-30T12:09:20.326Z,99388.70
2019-03-30T12:11:48.200Z,99382.92
2019-03-30T12:14:15.239Z,99381.34
2019-03-30T12:16:46.057Z,99384.88
2019-03-30T12:19:12.975Z,99377.16
2019-03-30T12:21:39.939Z,99373.78
2019-03-30T12:24:06.955Z,99375.91
2019-03-30T12:26:34.025Z,99366.15
2019-03-30T12:29:01.131Z,99372.75
2019-03-30T12:31:29.579Z,99358.88
2019-03-30T12:33:56.659Z,99352.00
2019-03-30T12:36:24.028Z,99351.69
2019-03-30T12:38:51.063Z,99346.59
2019-03-30T12:41:17.959Z,99350.17
2019-03-30T12:43:44.825Z,99342.61
2019-03-30T12:46:12.086Z,99345.28
2019-03-30T12:48:39.026Z,99336.27
2019-03-30T12:51:05.956Z,99336.30
2019-03-30T12:53:32.786Z,99333.59
2019-03-30T12:56:00.166Z,99332.05
2019-03-30T12:58:26.996Z,99330.81
2019-03-30T13:00:54.240Z,99330.16
2019-03-30T13:03:21.564Z,99321.57
2019-03-30T13:05:48.648Z,99319.49
2019-03-30T13:08:15.483Z,99303.66
2019-03-30T13:10:45.326Z,99305.63
2019-03-30T13:13:41.461Z,99306.58
2019-03-30T13:16:13.594Z,99305.17
2019-03-30T13:18:41.426Z,99303.93
2019-03-30T13:21:08.840Z,99299.56
2019-03-30T13:23:36.159Z,99298.31
2019-03-30T13:26:04.963Z,99296.28
2019-03-30T13:28:32.704Z,99288.64
2019-03-30T13:30:59.563Z,99290.13
2019-03-30T13:33:26.485Z,99285.64
2019-03-30T13:35:53.577Z,99281.12
2019-03-30T13:38:20.819Z,99287.67
2019-03-30T13:40:48.450Z,99283.70
2019-03-30T13:43:15.579Z,99281.72
2019-03-30T13:45:42.535Z,99278.33
2019-03-30T13:48:11.356Z,99272.94
2019-03-30T13:50:38.854Z,99265.92
2019-03-30T13:53:06.062Z,99261.26
2019-03-30T13:55:32.873Z,99261.23
2019-03-30T13:58:00.041Z,99257.54
2019-03-30T14:00:26.915Z,99257.27
2019-03-30T14:02:53.916Z,99254.08
2019-03-30T14:05:20.995Z,99256.41
2019-03-30T14:07:47.776Z,99248.84
2019-03-30T14:10:14.648Z,99241.86
2019-03-30T14:12:41.790Z,99247.64
2019-03-30T14:15:09.765Z,99243.14
2019-03-30T14:17:36.807Z,99238.36
2019-03-30T14:20:06.811Z,99227.38
2019-03-30T14:22:33.762Z,99237.98
2019-03-30T14:25:01.054Z,99235.27
2019-03-30T14:27:27.848Z,99230.13
2019-03-30T14:29:54.654Z,99228.59
2019-03-30T14:32:21.821Z,99223.20
2019-03-30T14:34:48.602Z,99223.31
2019-03-30T14:37:15.689Z,99213.28
2019-03-30T14:39:44.492Z,99208.08
2019-03-30T14:42:11.351Z,99198.27
2019-03-30T14:44:38.170Z,99201.75
2019-03-30T14:47:05.333Z,99198.31
2019-03-30T14:49:32.143Z,99195.09
2019-03-30T14:51:58.923Z,99192.44
2019-03-30T14:54:25.877Z,99192.67
2019-03-30T14:56:54.140Z,99192.39
2019-03-30T14:59:21.067Z,99191.89
2019-03-30T15:01:48.427Z,99188.59
2019-03-30T15:04:16.433Z,99181.75
2019-03-30T15:06:43.371Z,99175.56
2019-03-30T15:09:12.154Z,99181.00
2019-03-30T15:11:39.339Z,99180.42
2019-03-30T15:14:06.181Z,99179.88
2019-03-30T15:16:33.500Z,99172.92
2019-03-30T15:19:00.405Z,99165.23
2019-03-30T15:21:27.568Z,99168.73
2019-03-30T15:23:54.424Z,99156.65
2019-03-30T15:26:22.199Z,99163.90
2019-03-30T15:28:49.565Z,99151.34
2019-03-30T15:31:16.555Z,99150.50
2019-03-30T15:33:43.729Z,99151.34
2019-03-30T15:36:10.626Z,99143.79
2019-03-30T15:38:37.572Z,99144.16
2019-03-30T15:41:04.330Z,99142.75
2019-03-30T15:43:38.264Z,99143.19
2019-03-30T15:46:00.304Z,99146.72
2019-03-30T15:48:28.343Z,99142.14
2019-03-30T15:50:55.346Z,99139.39
2019-03-30T15:53:22.423Z,99137.03
2019-03-30T15:55:49.655Z,99135.24
2019-03-30T15:58:16.588Z,99134.30
2019-03-30T16:00:43.459Z,99137.09
2019-03-30T16:03:10.329Z,99135.77
2019-03-30T16:05:37.254Z,99131.56
2019-03-30T16:08:04.271Z,99132.02
2019-03-30T16:10:31.973Z,99125.55
2019-03-30T16:12:59.018Z,99129.80
2019-03-30T16:15:28.461Z,99119.12
2019-03-30T16:17:55.712Z,99124.73
2019-03-30T16:20:22.965Z,99122.66
2019-03-30T16:22:54.951Z,99128.64
2019-03-30T16:25:25.531Z,99122.36
2019-03-30T16:27:52.417Z,99122.61
2019-03-30T16:30:19.995Z,99128.19
2019-03-30T16:32:46.806Z,99121.28
2019-03-30T16:35:13.762Z,99122.23
2019-03-30T16:37:40.694Z,99125.69
2019-03-30T16:40:08.653Z,99121.11
2019-03-30T16:42:36.357Z,99119.53
2019-03-30T16:45:06.168Z,99121.95
2019-03-30T16:47:34.220Z,99111.78
2019-03-30T16:50:01.109Z,99115.89
2019-03-30T16:52:27.980Z,99105.93
2019-03-30T16:54:55.002Z,99113.08
2019-03-30T16:57:21.796Z,99112.06
2019-03-30T16:59:49.109Z,99108.72
2019-03-30T17:02:16.270Z,99111.38
2019-03-30T17:04:43.532Z,99110.70
2019-03-30T17:07:10.553Z,99108.52
2019-03-30T17:09:37.935Z,99110.59
2019-03-30T17:12:05.304Z,99108.19
2019-03-30T17:14:32.128Z,99109.01
2019-03-30T17:16:59.068Z,99105.67
2019-03-30T17:19:26.198Z,99106.36
2019-03-30T17:21:53.140Z,99107.64
2019-03-30T17:24:19.977Z,99107.86
2019-03-30T17:26:49.830Z,99109.10
2019-03-30T17:29:16.762Z,99110.67
2019-03-30T17:31:44.312Z,99106.55
2019-03-30T17:34:11.664Z,99102.29
2019-03-30T17:36:38.489Z,99105.59
2019-03-30T17:39:08.558Z,99103.02
2019-03-30T17:41:35.887Z,99112.46
2019-03-30T17:44:03.458Z,99111.02
2019-03-30T17:46:30.443Z,99106.00
2019-03-30T17:48:57.460Z,99109.95
2019-03-30T17:51:24.243Z,99116.09
2019-03-30T17:53:51.236Z,99113.59
2019-03-30T17:56:17.993Z,99111.95
2019-03-30T17:58:44.791Z,99114.63
2019-03-30T18:01:11.776Z,99121.83
2019-03-30T18:03:38.531Z,99120.08
2019-03-30T18:06:05.703Z,99119.84
2019-03-30T18:08:32.996Z,99117.58
2019-03-30T18:11:03.854Z,99120.59
2019-03-30T18:13:29.216Z,99125.35
2019-03-30T18:15:56.201Z,99122.60
2019-03-30T18:18:23.899Z,99135.32
2019-03-30T18:20:51.289Z,99133.21
2019-03-30T18:23:18.670Z,99136.27
2019-03-30T18:25:45.765Z,99141.13
2019-03-30T18:28:26.596Z,99139.38
2019-03-30T18:30:42.804Z,99136.10
2019-03-30T18:33:09.818Z,99142.42
2019-03-30T18:35:38.835Z,99142.86
2019-03-30T18:38:06.079Z,99153.55
2019-03-30T18:40:33.582Z,99152.99
2019-03-30T18:43:02.425Z,99155.00
2019-03-30T18:45:30.392Z,99152.32
2019-03-30T18:48:11.144Z,99151.02
2019-03-30T18:50:40.151Z,99160.61
2019-03-30T18:53:07.764Z,99160.52
2019-03-30T18:55:36.337Z,99168.06
2019-03-30T18:58:04.170Z,99169.08
2019-03-30T19:00:31.021Z,99167.28
2019-03-30T19:03:00.118Z,99172.56
2019-03-30T19:05:26.987Z,99170.07
2019-03-30T19:07:54.401Z,99177.76
2019-03-30T19:10:21.435Z,99177.27
2019-03-30T19:12:48.352Z,99181.59
2019-03-30T19:15:16.195Z,99179.63
2019-03-30T19:17:43.004Z,99183.01
2019-03-30T19:20:10.600Z,99187.79
2019-03-30T19:22:40.567Z,99185.33
2019-03-30T19:25:07.716Z,99183.10
2019-03-30T19:27:35.640Z,99187.32
2019-03-30T19:30:09.974Z,99185.45
2019-03-30T19:32:36.754Z,99188.59
2019-03-30T19:35:05.367Z,99188.42
2019-03-30T19:37:32.337Z,99192.52
2019-03-30T19:39:59.518Z,99190.08
2019-03-30T19:42:26.661Z,99195.86
2019-03-30T19:44:53.835Z,99195.01
2019-03-30T19:47:20.737Z,99199.63
2019-03-30T19:49:49.273Z,99200.03
2019-03-30T19:52:16.626Z,99197.63
2019-03-30T19:54:43.536Z,99198.73
2019-03-30T19:57:10.615Z,99196.84
2019-03-30T19:59:38.258Z,99204.19
2019-03-30T20:02:05.886Z,99198.34
2019-03-30T20:04:36.631Z,99202.17
2019-03-30T20:07:03.999Z,99198.74
2019-03-30T20:09:31.278Z,99201.86
2019-03-30T20:11:58.214Z,99201.42
2019-03-30T20:14:28.243Z,99195.43
2019-03-30T20:16:55.887Z,99199.76
2019-03-30T20:19:23.122Z,99199.20
2019-03-30T20:21:50.789Z,99195.08
2019-03-30T20:24:18.005Z,99188.88
2019-03-30T20:26:45.049Z,99194.92
2019-03-30T20:29:24.649Z,99191.23
2019-03-30T20:31:41.426Z,99194.46
2019-03-30T20:34:09.830Z,99195.34
2019-03-30T20:36:39.006Z,99189.56
2019-03-30T20:39:08.487Z,99195.19
2019-03-30T20:41:35.600Z,99195.95
2019-03-30T20:44:03.640Z,99195.54
2019-03-30T20:46:30.961Z,99194.23
2019-03-30T20:48:58.231Z,99187.78
2019-03-30T20:51:25.026Z,99194.23
2019-03-30T20:53:51.775Z,99195.50
2019-03-30T20:56:18.650Z,99201.34
2019-03-30T20:58:45.555Z,99197.18
2019-03-30T21:01:12.520Z,99196.24
2019-03-30T21:03:39.648Z,99201.39
2019-03-30T21:06:06.800Z,99196.48
2019-03-30T21:08:34.096Z,99199.11
2019-03-30T21:11:01.060Z,99202.67
2019-03-30T21:13:29.365Z,99201.92
2019-03-30T21:15:56.775Z,99197.59
2019-03-30T21:18:24.400Z,99202.59
2019-03-30T21:20:52.746Z,99199.42
2019-03-30T21:23:19.914Z,99203.66
2019-03-30T21:25:47.497Z,99206.78
2019-03-30T21:28:14.545Z,99203.11
2019-03-30T21:30:42.234Z,99202.34
2019-03-30T21:33:10.159Z,99199.95
2019-03-30T21:35:39.033Z,99206.76
2019-03-30T21:38:06.484Z,99198.88
2019-03-30T21:40:35.681Z,99202.05
2019-03-30T21:43:02.881Z,99202.28
2019-03-30T21:45:30.398Z,99199.73
2019-03-30T21:47:57.325Z,99200.87
2019-03-30T21:50:24.635Z,99200.65
2019-03-30T21:52:52.039Z,99200.76
2019-03-30T21:55:18.938Z,99189.77
2019-03-30T21:57:46.272Z,99196.44
2019-03-30T22:00:25.820Z,99194.97
2019-03-30T22:02:56.045Z,99191.05
2019-03-30T22:05:25.446Z,99192.50
2019-03-30T22:07:52.852Z,99201.48
2019-03-30T22:10:28.378Z,99193.66
2019-03-30T22:12:56.399Z,99200.37
2019-03-30T22:15:28.710Z,99197.53
2019-03-30T22:17:56.372Z,99195.66
2019-03-30T22:20:24.584Z,99186.16
2019-03-30T22:22:53.689Z,99196.07
2019-03-30T22:25:20.723Z,99189.77
2019-03-30T22:27:49.775Z,99188.52
2019-03-30T22:30:24.645Z,99185.38
2019-03-30T22:32:46.033Z,99186.93
2019-03-30T22:35:13.835Z,99180.61
2019-03-30T22:37:41.170Z,99176.47
2019-03-30T22:40:10.277Z,99184.44
2019-03-30T22:42:37.474Z,99186.00
2019-03-30T22:45:06.383Z,99178.44
2019-03-30T22:47:34.194Z,99180.58
2019-03-30T22:50:05.566Z,99177.71
2019-03-30T22:52:32.356Z,99182.78
2019-03-30T22:54:59.536Z,99180.63
2019-03-30T22:57:27.172Z,99181.38
2019-03-30T22:59:54.596Z,99178.48
2019-03-30T23:02:23.224Z,99187.97
2019-03-30T23:04:50.499Z,99182.38
2019-03-30T23:07:17.561Z,99183.86
2019-03-30T23:09:44.878Z,99189.53
2019-03-30T23:12:12.276Z,99184.38
2019-03-30T23:14:40.720Z,99180.17
2019-03-30T23:17:07.638Z,99181.59
2019-03-30T23:19:34.657Z,99177.72
2019-03-30T23:22:01.787Z,99182.64
2019-03-30T23:24:28.793Z,99173.47
2019-03-30T23:26:55.668Z,99176.52
2019-03-30T23:29:22.652Z,99179.16
2019-03-30T23:31:51.403Z,99179.91
2019-03-30T23:34:18.607Z,99174.23
2019-03-30T23:36:46.210Z,99172.88
2019-03-30T23:39:14.288Z,99174.86
2019-03-30T23:41:44.596Z,99174.59
2019-03-30T23:44:13.091Z,99175.16
2019-03-30T23:46:43.972Z,99176.78
2019-03-30T23:49:11.105Z,99175.72
2019-03-30T23:51:39.111Z,99176.25
2019-03-30T23:54:14.362Z,99173.52
2019-03-30T23:56:43.208Z,99175.42
2019-03-30T23:59:10.497Z,99171.92
